sensor_id;sensor_type;location;lat;lon;timestamp;temperature;humidity
20139;DHT22;10230;51.502;10.800;2023-06-22T06:16:58;23.20;99.90
20139;DHT22;10230;51.502;10.800;2023-06-22T06:21:49;23.90;99.90
20139;DHT22;10230;51.502;10.800;2023-06-22T06:26:42;24.60;99.90
20139;DHT22;10230;51.502;10.800;2023-06-22T06:29:07;24.90;99.90
20139;DHT22;10230;51.502;10.800;2023-06-22T06:31:33;25.20;99.90
20139;DHT22;10230;51.502;10.800;2023-06-22T06:36:25;25.50;99.90
20139;DHT22;10230;51.502;10.800;2023-06-22T07:25:11;27.60;99.90
20139;DHT22;10230;51.502;10.800;2023-06-22T07:27:44;27.50;99.90
20139;DHT22;10230;51.502;10.800;2023-06-22T07:30:11;27.50;99.90
20139;DHT22;10230;51.502;10.800;2023-06-22T07:32:40;27.40;99.90
20139;DHT22;10230;51.502;10.800;2023-06-22T07:35:06;27.40;99.90
20139;DHT22;10230;51.502;10.800;2023-06-22T07:37:33;27.50;99.90
20139;DHT22;10230;51.502;10.800;2023-06-22T07:47:19;28.70;99.90
20139;DHT22;10230;51.502;10.800;2023-06-22T07:49:48;29.20;99.90
20139;DHT22;10230;51.502;10.800;2023-06-22T07:52:15;29.70;99.90
20139;DHT22;10230;51.502;10.800;2023-06-22T07:54:41;30.10;99.90
20139;DHT22;10230;51.502;10.800;2023-06-22T07:57:07;30.60;99.90
20139;DHT22;10230;51.502;10.800;2023-06-22T07:59:33;31.10;99.90
20139;DHT22;10230;51.502;10.800;2023-06-22T08:04:25;31.70;99.90
20139;DHT22;10230;51.502;10.800;2023-06-22T08:06:52;32.00;99.90
20139;DHT22;10230;51.502;10.800;2023-06-22T08:09:19;32.00;99.90
20139;DHT22;10230;51.502;10.800;2023-06-22T08:11:45;32.40;99.90
20139;DHT22;10230;51.502;10.800;2023-06-22T08:14:10;32.70;99.90
20139;DHT22;10230;51.502;10.800;2023-06-22T08:16:36;33.20;99.90
20139;DHT22;10230;51.502;10.800;2023-06-22T08:21:35;35.90;99.90
20139;DHT22;10230;51.502;10.800;2023-06-22T08:24:02;36.10;99.90
20139;DHT22;10230;51.502;10.800;2023-06-22T08:26:34;37.40;98.80
20139;DHT22;10230;51.502;10.800;2023-06-22T08:29:03;38.50;95.00
20139;DHT22;10230;51.502;10.800;2023-06-22T08:31:31;39.60;91.40
20139;DHT22;10230;51.502;10.800;2023-06-22T08:34:00;41.10;86.60
20139;DHT22;10230;51.502;10.800;2023-06-22T10:56:23;46.10;37.30
20139;DHT22;10230;51.502;10.800;2023-06-22T10:58:49;46.10;37.90
20139;DHT22;10230;51.502;10.800;2023-06-22T11:01:15;45.00;39.80
20139;DHT22;10230;51.502;10.800;2023-06-22T11:03:41;44.40;39.60
20139;DHT22;10230;51.502;10.800;2023-06-22T11:40:15;43.30;40.40
20139;DHT22;10230;51.502;10.800;2023-06-22T11:42:43;42.20;42.60
20139;DHT22;10230;51.502;10.800;2023-06-22T11:45:09;40.90;44.20
20139;DHT22;10230;51.502;10.800;2023-06-22T11:47:35;40.50;46.60
20139;DHT22;10230;51.502;10.800;2023-06-22T11:50:02;40.30;46.40
20139;DHT22;10230;51.502;10.800;2023-06-22T11:52:28;40.40;46.70
20139;DHT22;10230;51.502;10.800;2023-06-22T11:54:53;40.60;47.30
20139;DHT22;10230;51.502;10.800;2023-06-22T11:57:19;40.90;46.50
20139;DHT22;10230;51.502;10.800;2023-06-22T11:59:45;41.00;45.80
20139;DHT22;10230;51.502;10.800;2023-06-22T12:02:10;41.10;45.90
20139;DHT22;10230;51.502;10.800;2023-06-22T12:24:06;38.30;77.40
20139;DHT22;10230;51.502;10.800;2023-06-22T12:26:31;37.90;50.30
20139;DHT22;10230;51.502;10.800;2023-06-22T12:28:57;37.70;51.20
20139;DHT22;10230;51.502;10.800;2023-06-22T12:38:42;36.80;95.40
20139;DHT22;10230;51.502;10.800;2023-06-22T12:48:28;35.30;92.60
20139;DHT22;10230;51.502;10.800;2023-06-22T12:50:54;35.40;89.50
20139;DHT22;10230;51.502;10.800;2023-06-22T12:53:19;35.80;91.30
20139;DHT22;10230;51.502;10.800;2023-06-22T12:55:45;35.00;55.60
20139;DHT22;10230;51.502;10.800;2023-06-22T12:58:11;34.50;56.50
20139;DHT22;10230;51.502;10.800;2023-06-22T13:00:38;34.20;57.20
20139;DHT22;10230;51.502;10.800;2023-06-22T13:03:04;34.10;56.90
20139;DHT22;10230;51.502;10.800;2023-06-22T13:05:30;34.10;57.10
20139;DHT22;10230;51.502;10.800;2023-06-22T13:07:56;34.10;57.50
20139;DHT22;10230;51.502;10.800;2023-06-22T13:10:21;34.30;57.70
20139;DHT22;10230;51.502;10.800;2023-06-22T13:12:47;34.30;57.40
20139;DHT22;10230;51.502;10.800;2023-06-22T13:15:13;34.30;57.70
20139;DHT22;10230;51.502;10.800;2023-06-22T13:17:38;34.20;57.60
20139;DHT22;10230;51.502;10.800;2023-06-22T13:20:05;34.00;57.80
20139;DHT22;10230;51.502;10.800;2023-06-22T13:22:33;33.90;58.20
20139;DHT22;10230;51.502;10.800;2023-06-22T13:25:05;33.90;58.30
20139;DHT22;10230;51.502;10.800;2023-06-22T13:27:31;33.80;58.70
20139;DHT22;10230;51.502;10.800;2023-06-22T13:29:57;33.80;58.90
20139;DHT22;10230;51.502;10.800;2023-06-22T13:32:23;34.20;59.60
20139;DHT22;10230;51.502;10.800;2023-06-22T13:34:48;33.80;59.60
20139;DHT22;10230;51.502;10.800;2023-06-22T13:37:14;33.80;59.60
20139;DHT22;10230;51.502;10.800;2023-06-22T13:39:40;33.70;59.40
20139;DHT22;10230;51.502;10.800;2023-06-22T13:42:06;33.60;59.00
20139;DHT22;10230;51.502;10.800;2023-06-22T13:44:31;33.60;59.00
20139;DHT22;10230;51.502;10.800;2023-06-22T13:46:57;33.50;59.30
20139;DHT22;10230;51.502;10.800;2023-06-22T13:51:49;33.40;58.70
20139;DHT22;10230;51.502;10.800;2023-06-22T13:54:15;33.40;59.70
20139;DHT22;10230;51.502;10.800;2023-06-22T13:56:40;33.30;59.80
20139;DHT22;10230;51.502;10.800;2023-06-22T13:59:06;33.30;61.10
20139;DHT22;10230;51.502;10.800;2023-06-22T14:01:36;33.20;61.20
20139;DHT22;10230;51.502;10.800;2023-06-22T14:04:01;33.20;61.70
20139;DHT22;10230;51.502;10.800;2023-06-22T14:06:27;33.20;61.70
20139;DHT22;10230;51.502;10.800;2023-06-22T14:08:53;33.20;61.50
20139;DHT22;10230;51.502;10.800;2023-06-22T14:11:18;33.20;61.10
20139;DHT22;10230;51.502;10.800;2023-06-22T14:13:44;33.30;60.40
20139;DHT22;10230;51.502;10.800;2023-06-22T14:16:10;33.40;60.70
20139;DHT22;10230;51.502;10.800;2023-06-22T14:18:36;33.50;60.60
20139;DHT22;10230;51.502;10.800;2023-06-22T14:21:01;33.50;60.10
20139;DHT22;10230;51.502;10.800;2023-06-22T14:23:27;33.60;60.60
20139;DHT22;10230;51.502;10.800;2023-06-22T14:25:53;33.70;60.90
20139;DHT22;10230;51.502;10.800;2023-06-22T14:28:18;33.70;60.00
20139;DHT22;10230;51.502;10.800;2023-06-22T14:30:44;33.70;60.00
20139;DHT22;10230;51.502;10.800;2023-06-22T14:33:11;33.60;59.80
20139;DHT22;10230;51.502;10.800;2023-06-22T14:35:37;33.50;60.10
20139;DHT22;10230;51.502;10.800;2023-06-22T14:38:03;33.20;60.80
20139;DHT22;10230;51.502;10.800;2023-06-22T14:40:28;33.00;61.40
20139;DHT22;10230;51.502;10.800;2023-06-22T14:42:54;32.90;62.10
20139;DHT22;10230;51.502;10.800;2023-06-22T14:45:22;32.80;62.30
20139;DHT22;10230;51.502;10.800;2023-06-22T14:47:48;32.10;63.00
20139;DHT22;10230;51.502;10.800;2023-06-22T14:50:14;32.40;63.80
20139;DHT22;10230;51.502;10.800;2023-06-22T14:52:39;32.20;65.10
20139;DHT22;10230;51.502;10.800;2023-06-22T14:59:57;31.90;66.10
20139;DHT22;10230;51.502;10.800;2023-06-22T15:02:23;31.40;70.20
20139;DHT22;10230;51.502;10.800;2023-06-22T15:04:49;31.30;68.00
20139;DHT22;10230;51.502;10.800;2023-06-22T15:07:15;31.30;68.60
20139;DHT22;10230;51.502;10.800;2023-06-22T15:09:40;31.30;67.70
20139;DHT22;10230;51.502;10.800;2023-06-22T15:12:08;31.20;68.90
20139;DHT22;10230;51.502;10.800;2023-06-22T15:14:40;31.20;69.30
20139;DHT22;10230;51.502;10.800;2023-06-22T15:17:07;31.10;70.10
20139;DHT22;10230;51.502;10.800;2023-06-22T15:19:39;31.00;71.10
20139;DHT22;10230;51.502;10.800;2023-06-22T15:22:05;30.90;71.70
20139;DHT22;10230;51.502;10.800;2023-06-22T15:24:32;30.80;72.00
20139;DHT22;10230;51.502;10.800;2023-06-22T15:26:57;30.70;72.60
20139;DHT22;10230;51.502;10.800;2023-06-22T15:29:23;30.70;73.30
20139;DHT22;10230;51.502;10.800;2023-06-22T15:31:49;30.60;73.70
20139;DHT22;10230;51.502;10.800;2023-06-22T15:34:15;30.60;73.90
20139;DHT22;10230;51.502;10.800;2023-06-22T15:36:40;30.60;74.50
20139;DHT22;10230;51.502;10.800;2023-06-22T15:39:06;30.60;75.30
20139;DHT22;10230;51.502;10.800;2023-06-22T15:41:32;30.50;75.20
20139;DHT22;10230;51.502;10.800;2023-06-22T15:43:58;30.50;75.90
20139;DHT22;10230;51.502;10.800;2023-06-22T15:46:24;30.40;76.70
20139;DHT22;10230;51.502;10.800;2023-06-22T15:48:49;30.30;77.30
20139;DHT22;10230;51.502;10.800;2023-06-22T15:51:15;30.20;77.80
20139;DHT22;10230;51.502;10.800;2023-06-22T15:53:41;30.20;78.70
20139;DHT22;10230;51.502;10.800;2023-06-22T15:56:07;30.10;79.70
20139;DHT22;10230;51.502;10.800;2023-06-22T15:58:37;30.10;80.20
20139;DHT22;10230;51.502;10.800;2023-06-22T16:01:04;30.00;81.10
